createdAt,value
2019-04-25T00:00:52.255Z,96651.00
2019-04-25T00:03:32.852Z,96649.00
2019-04-25T00:06:02.441Z,96634.00
2019-04-25T00:08:31.774Z,96638.00
2019-04-25T00:11:02.703Z,96646.00
2019-04-25T00:13:32.131Z,96647.00
2019-04-25T00:16:01.902Z,96655.00
2019-04-25T00:18:31.919Z,96649.00
2019-04-25T00:21:02.935Z,96647.00
2019-04-25T00:23:32.284Z,96647.00
2019-04-25T00:26:15.351Z,96638.00
2019-04-25T00:28:45.446Z,96634.00
2019-04-25T00:31:15.187Z,96637.00
2019-04-25T00:33:47.673Z,96650.00
2019-04-25T00:36:17.030Z,96657.00
2019-04-25T00:38:47.866Z,96639.00
2019-04-25T00:41:17.970Z,96638.00
2019-04-25T00:43:47.599Z,96646.00
2019-04-25T00:46:16.962Z,96641.00
2019-04-25T00:48:46.340Z,96636.00
2019-04-25T00:51:15.705Z,96646.00
2019-04-25T00:53:45.044Z,96652.00
2019-04-25T00:56:14.447Z,96650.00
2019-04-25T00:58:57.500Z,96647.00
2019-04-25T01:01:29.109Z,96646.00
2019-04-25T01:03:59.141Z,96641.00
2019-04-25T01:06:28.487Z,96660.00
2019-04-25T01:08:57.948Z,96661.00
2019-04-25T01:11:27.375Z,96669.00
2019-04-25T01:13:57.298Z,96691.00
2019-04-25T01:16:26.733Z,96697.00
2019-04-25T01:18:56.101Z,96694.00
2019-04-25T01:21:25.494Z,96718.00
2019-04-25T01:23:55.710Z,96716.00
2019-04-25T01:26:25.455Z,96721.00
2019-04-25T01:28:54.961Z,96719.00
2019-04-25T01:31:26.052Z,96722.00
2019-04-25T01:33:55.603Z,96726.00
2019-04-25T01:36:26.835Z,96728.00
2019-04-25T01:39:16.269Z,96721.00
2019-04-25T01:41:47.928Z,96725.00
2019-04-25T01:44:24.714Z,96740.00
2019-04-25T01:46:55.603Z,96746.00
2019-04-25T01:49:25.844Z,96729.00
2019-04-25T01:51:57.431Z,96733.00
2019-04-25T02:14:52.684Z,96729.00
2019-04-25T02:17:21.818Z,96724.00
2019-04-25T02:19:52.103Z,96742.00
2019-04-25T02:22:21.598Z,96734.00
2019-04-25T02:24:50.944Z,96739.00
2019-04-25T02:27:20.303Z,96725.00
2019-04-25T02:29:49.761Z,96721.00
2019-04-25T02:32:19.132Z,96732.00
2019-04-25T02:34:48.472Z,96730.00
2019-04-25T02:37:18.348Z,96722.00
2019-04-25T02:39:47.762Z,96740.00
2019-04-25T02:42:17.203Z,96748.00
2019-04-25T02:44:48.264Z,96742.00
2019-04-25T02:47:28.008Z,96754.00
2019-04-25T02:50:11.598Z,96756.00
2019-04-25T02:52:44.387Z,96758.00
2019-04-25T02:55:29.506Z,96750.00
2019-04-25T02:57:45.415Z,96758.00
2019-04-25T03:00:26.346Z,96746.00
2019-04-25T03:02:57.288Z,96758.00
2019-04-25T03:05:27.446Z,96761.00
2019-04-25T03:07:57.931Z,96764.00
2019-04-25T03:10:29.523Z,96758.00
2019-04-25T03:13:00.280Z,96755.00
2019-04-25T03:15:31.549Z,96750.00
2019-04-25T03:18:02.311Z,96753.00
2019-04-25T03:20:35.489Z,96761.00
2019-04-25T03:23:24.510Z,96750.00
2019-04-25T03:25:53.607Z,96747.00
2019-04-25T03:28:23.898Z,96740.00
2019-04-25T03:30:54.991Z,96754.00
2019-04-25T03:33:25.950Z,96750.00
2019-04-25T03:35:56.467Z,96744.00
2019-04-25T03:38:25.827Z,96750.00
2019-04-25T03:40:55.731Z,96760.00
2019-04-25T03:43:25.082Z,96753.00
2019-04-25T03:45:54.596Z,96755.00
2019-04-25T03:48:25.198Z,96753.00
2019-04-25T03:50:54.683Z,96744.00
2019-04-25T03:53:25.590Z,96751.00
2019-04-25T03:55:55.541Z,96765.00
2019-04-25T03:58:24.897Z,96772.00
2019-04-25T04:00:54.942Z,96766.00
2019-04-25T04:03:24.291Z,96780.00
2019-04-25T04:05:54.040Z,96794.00
2019-04-25T04:08:24.887Z,96785.00
2019-04-25T04:10:54.465Z,96768.00
2019-04-25T04:13:24.344Z,96792.00
2019-04-25T04:15:54.290Z,96780.00
2019-04-25T04:18:27.077Z,96785.00
2019-04-25T04:20:58.450Z,96783.00
2019-04-25T04:23:29.450Z,96779.00
2019-04-25T04:25:58.959Z,96782.00
2019-04-25T04:28:28.333Z,96771.00
2019-04-25T04:30:58.155Z,96771.00
2019-04-25T04:33:32.257Z,96765.00
2019-04-25T04:36:00.225Z,96772.00
2019-04-25T04:38:29.626Z,96776.00
2019-04-25T04:41:00.517Z,96767.00
2019-04-25T04:43:31.435Z,96782.00
2019-04-25T04:46:01.162Z,96783.00
2019-04-25T04:48:30.514Z,96776.00
2019-04-25T04:50:59.862Z,96789.00
2019-04-25T04:53:33.892Z,96780.00
2019-04-25T04:56:04.234Z,96786.00
2019-04-25T04:58:34.295Z,96777.00
2019-04-25T05:01:04.284Z,96777.00
2019-04-25T05:03:35.275Z,96787.00
2019-04-25T05:06:23.999Z,96796.00
2019-04-25T05:08:55.056Z,96800.00
2019-04-25T05:11:25.532Z,96796.00
2019-04-25T05:13:56.511Z,96786.00
2019-04-25T05:16:25.898Z,96792.00
2019-04-25T05:18:55.929Z,96807.00
2019-04-25T05:21:27.033Z,96802.00
2019-04-25T05:23:57.209Z,96793.00
2019-04-25T05:26:26.565Z,96793.00
2019-04-25T05:28:55.951Z,96789.00
2019-04-25T05:31:26.959Z,96787.00
2019-04-25T05:33:56.355Z,96787.00
2019-04-25T05:36:27.381Z,96791.00
2019-04-25T05:38:56.737Z,96791.00
2019-04-25T05:41:30.541Z,96789.00
2019-04-25T05:44:00.292Z,96793.00
2019-04-25T05:46:29.683Z,96780.00
2019-04-25T05:48:59.052Z,96794.00
2019-04-25T05:51:28.431Z,96783.00
2019-04-25T05:53:57.808Z,96784.00
2019-04-25T05:56:28.309Z,96793.00
2019-04-25T05:58:57.688Z,96784.00
2019-04-25T06:01:29.209Z,96790.00
2019-04-25T06:03:58.127Z,96787.00
2019-04-25T06:06:28.255Z,96794.00
2019-04-25T06:09:02.011Z,96778.00
2019-04-25T06:11:35.722Z,96783.00
2019-04-25T06:14:06.756Z,96794.00
2019-04-25T06:16:37.355Z,96788.00
2019-04-25T06:19:14.140Z,96806.00
2019-04-25T06:21:40.237Z,96790.00
2019-04-25T06:24:20.520Z,96791.00
2019-04-25T06:26:57.716Z,96793.00
2019-04-25T06:29:27.071Z,96797.00
2019-04-25T06:32:06.023Z,96792.00
2019-04-25T06:34:28.411Z,96789.00
2019-04-25T06:36:58.632Z,96797.00
2019-04-25T06:39:28.013Z,96799.00
2019-04-25T06:41:57.908Z,96813.00
2019-04-25T06:44:32.598Z,96805.00
2019-04-25T06:47:15.116Z,96802.00
2019-04-25T06:49:45.501Z,96826.00
2019-04-25T06:52:17.559Z,96818.00
2019-04-25T06:54:46.953Z,96808.00
2019-04-25T06:57:16.341Z,96816.00
2019-04-25T06:59:45.699Z,96827.00
2019-04-25T07:02:15.545Z,96813.00
2019-04-25T07:04:45.658Z,96834.00
2019-04-25T07:07:15.207Z,96831.00
2019-04-25T07:09:44.727Z,96832.00
2019-04-25T07:12:14.150Z,96820.00
2019-04-25T07:14:44.039Z,96814.00
2019-04-25T07:17:17.032Z,96826.00
2019-04-25T07:19:46.432Z,96829.00
2019-04-25T07:22:15.939Z,96837.00
2019-04-25T07:24:45.295Z,96851.00
2019-04-25T07:27:34.783Z,96847.00
2019-04-25T07:30:13.507Z,96867.00
2019-04-25T07:32:44.597Z,96865.00
2019-04-25T07:35:14.050Z,96856.00
2019-04-25T07:37:44.207Z,96863.00
2019-04-25T07:40:15.823Z,96877.00
2019-04-25T07:42:45.197Z,96864.00
2019-04-25T07:45:16.900Z,96875.00
2019-04-25T07:47:46.638Z,96871.00
2019-04-25T07:50:16.343Z,96875.00
2019-04-25T07:52:46.068Z,96867.00
2019-04-25T07:55:15.733Z,96880.00
2019-04-25T07:57:45.168Z,96871.00
2019-04-25T08:00:17.082Z,96880.00
2019-04-25T08:02:46.565Z,96880.00
2019-04-25T08:05:19.021Z,96860.00
2019-04-25T08:07:48.481Z,96877.00
2019-04-25T08:10:19.755Z,96862.00
2019-04-25T08:12:49.128Z,96878.00
2019-04-25T08:15:29.969Z,96884.00
2019-04-25T08:18:01.126Z,96884.00
2019-04-25T08:20:31.113Z,96872.00
2019-04-25T08:23:04.332Z,96895.00
2019-04-25T08:25:37.703Z,96893.00
2019-04-25T08:28:05.415Z,96898.00
2019-04-25T08:30:36.684Z,96894.00
2019-04-25T08:33:07.073Z,96903.00
2019-04-25T08:35:36.660Z,96912.00
2019-04-25T08:38:06.742Z,96919.00
2019-04-25T08:40:37.763Z,96914.00
2019-04-25T08:43:07.393Z,96885.00
2019-04-25T08:45:37.428Z,96884.00
2019-04-25T08:48:08.061Z,96868.00
2019-04-25T08:50:58.436Z,96871.00
2019-04-25T08:53:29.432Z,96865.00
2019-04-25T08:56:00.429Z,96861.00
2019-04-25T08:59:01.505Z,96861.00
2019-04-25T09:01:37.946Z,96868.00
2019-04-25T09:04:25.566Z,96849.00
2019-04-25T09:06:55.453Z,96873.00
2019-04-25T09:09:24.886Z,96868.00
2019-04-25T09:11:54.474Z,96863.00
2019-04-25T09:14:24.563Z,96869.00
2019-04-25T09:16:54.031Z,96853.00
2019-04-25T09:19:24.186Z,96868.00
2019-04-25T09:21:53.610Z,96860.00
2019-04-25T09:24:24.605Z,96876.00
2019-04-25T09:26:54.781Z,96861.00
2019-04-25T09:29:24.134Z,96872.00
2019-04-25T09:31:54.126Z,96865.00
2019-04-25T09:34:24.628Z,96865.00
2019-04-25T09:36:54.086Z,96857.00
2019-04-25T09:39:25.090Z,96853.00
2019-04-25T09:41:55.005Z,96858.00
2019-04-25T09:44:26.000Z,96851.00
2019-04-25T09:46:55.355Z,96831.00
2019-04-25T09:49:26.962Z,96839.00
2019-04-25T09:51:57.959Z,96833.00
2019-04-25T09:54:29.013Z,96830.00
2019-04-25T09:57:16.769Z,96828.00
2019-04-25T09:59:46.241Z,96835.00
2019-04-25T10:02:16.245Z,96816.00
2019-04-25T10:04:46.376Z,96834.00
2019-04-25T10:07:15.785Z,96824.00
2019-04-25T10:09:46.085Z,96826.00
2019-04-25T10:12:15.667Z,96832.00
2019-04-25T10:15:21.140Z,96827.00
2019-04-25T10:17:50.834Z,96827.00
2019-04-25T10:20:20.419Z,96829.00
2019-04-25T10:22:49.839Z,96829.00
2019-04-25T10:25:20.014Z,96824.00
2019-04-25T10:27:49.459Z,96828.00
2019-04-25T10:30:23.383Z,96843.00
2019-04-25T10:32:51.161Z,96839.00
2019-04-25T10:35:20.868Z,96831.00
2019-04-25T10:37:50.218Z,96847.00
2019-04-25T10:40:20.639Z,96840.00
2019-04-25T10:42:50.707Z,96828.00
2019-04-25T10:45:23.359Z,96819.00
2019-04-25T10:47:51.327Z,96816.00
2019-04-25T10:50:23.726Z,96812.00
2019-04-25T10:52:52.767Z,96825.00
2019-04-25T10:55:23.451Z,96811.00
2019-04-25T10:57:53.856Z,96820.00
2019-04-25T11:00:46.234Z,96813.00
2019-04-25T11:03:29.232Z,96802.00
2019-04-25T11:05:59.002Z,96808.00
2019-04-25T11:08:28.585Z,96817.00
2019-04-25T11:10:58.979Z,96806.00
2019-04-25T11:13:28.669Z,96795.00
2019-04-25T11:15:58.694Z,96806.00
2019-04-25T11:18:28.118Z,96805.00
2019-04-25T11:20:57.575Z,96791.00
2019-04-25T11:23:27.005Z,96805.00
2019-04-25T11:25:56.577Z,96788.00
2019-04-25T11:28:25.977Z,96788.00
2019-04-25T11:30:56.838Z,96789.00
2019-04-25T11:33:27.072Z,96789.00
2019-04-25T11:35:56.915Z,96784.00
2019-04-25T11:38:34.898Z,96791.00
2019-04-25T11:41:05.972Z,96785.00
2019-04-25T11:43:35.650Z,96783.00
2019-04-25T11:46:05.200Z,96789.00
2019-04-25T11:48:34.708Z,96795.00
2019-04-25T11:51:05.269Z,96782.00
2019-04-25T11:53:34.698Z,96782.00
2019-04-25T11:56:04.289Z,96788.00
2019-04-25T11:58:33.639Z,96782.00
2019-04-25T12:01:05.158Z,96787.00
2019-04-25T12:03:35.391Z,96776.00
2019-04-25T12:06:05.871Z,96773.00
2019-04-25T12:08:35.242Z,96772.00
2019-04-25T12:11:05.931Z,96761.00
2019-04-25T12:13:35.484Z,96766.00
2019-04-25T12:16:04.843Z,96762.00
2019-04-25T12:18:36.337Z,96758.00
2019-04-25T12:21:05.698Z,96749.00
2019-04-25T12:23:35.047Z,96739.00
2019-04-25T12:26:04.554Z,96745.00
2019-04-25T12:28:33.946Z,96757.00
2019-04-25T12:31:04.093Z,96740.00
2019-04-25T12:33:33.477Z,96742.00
2019-04-25T12:36:02.835Z,96724.00
2019-04-25T12:38:35.101Z,96725.00
2019-04-25T12:41:04.153Z,96731.00
2019-04-25T12:43:35.103Z,96729.00
2019-04-25T12:46:08.662Z,96729.00
2019-04-25T12:48:38.194Z,96735.00
2019-04-25T12:51:08.649Z,96742.00
2019-04-25T12:53:38.020Z,96725.00
2019-04-25T12:56:09.267Z,96724.00
2019-04-25T12:58:38.773Z,96718.00
2019-04-25T13:01:09.477Z,96729.00
2019-04-25T13:03:38.844Z,96726.00
2019-04-25T13:06:08.283Z,96729.00
2019-04-25T13:08:37.651Z,96741.00
2019-04-25T13:11:08.651Z,96739.00
2019-04-25T13:13:38.113Z,96740.00
2019-04-25T13:16:07.645Z,96720.00
2019-04-25T13:18:37.716Z,96716.00
2019-04-25T13:21:07.753Z,96716.00
2019-04-25T13:23:37.128Z,96698.00
2019-04-25T13:26:07.208Z,96687.00
2019-04-25T13:28:42.271Z,96696.00
2019-04-25T13:31:14.883Z,96707.00
2019-04-25T13:33:52.006Z,96692.00
2019-04-25T13:36:23.985Z,96693.00
2019-04-25T13:38:54.111Z,96679.00
2019-04-25T13:41:23.428Z,96684.00
2019-04-25T13:43:54.692Z,96695.00
2019-04-25T13:46:26.118Z,96688.00
2019-04-25T13:48:55.327Z,96693.00
2019-04-25T13:51:25.053Z,96697.00
2019-04-25T13:53:54.642Z,96694.00
2019-04-25T13:56:25.902Z,96700.00
2019-04-25T13:58:55.249Z,96685.00
2019-04-25T14:01:25.865Z,96677.00
2019-04-25T14:03:55.371Z,96677.00
2019-04-25T14:06:24.825Z,96674.00
2019-04-25T14:08:54.248Z,96651.00
2019-04-25T14:11:24.155Z,96653.00
2019-04-25T14:13:53.909Z,96666.00
2019-04-25T14:16:30.704Z,96653.00
2019-04-25T14:19:01.809Z,96651.00
2019-04-25T14:21:31.652Z,96641.00
2019-04-25T14:24:02.265Z,96638.00
2019-04-25T14:26:31.640Z,96636.00
2019-04-25T14:29:01.001Z,96625.00
2019-04-25T14:31:41.532Z,96630.00
2019-04-25T14:34:03.270Z,96626.00
2019-04-25T14:36:34.558Z,96631.00
2019-04-25T14:39:05.937Z,96627.00
2019-04-25T14:41:35.311Z,96638.00
2019-04-25T14:44:04.819Z,96625.00
2019-04-25T14:46:34.337Z,96637.00
2019-04-25T14:49:04.567Z,96649.00
2019-04-25T14:51:33.971Z,96648.00
2019-04-25T14:54:04.969Z,96648.00
2019-04-25T14:56:38.705Z,96642.00
2019-04-25T14:59:08.359Z,96626.00
2019-04-25T15:01:45.039Z,96628.00
2019-04-25T15:04:09.248Z,96633.00
2019-04-25T15:06:40.249Z,96638.00
2019-04-25T15:09:09.793Z,96630.00
2019-04-25T15:11:39.202Z,96640.00
2019-04-25T15:14:08.563Z,96637.00
2019-04-25T15:16:42.539Z,96625.00
2019-04-25T15:19:12.292Z,96630.00
2019-04-25T15:21:41.660Z,96621.00
2019-04-25T15:24:11.015Z,96625.00
2019-04-25T15:26:42.332Z,96622.00
2019-04-25T15:29:11.746Z,96619.00
2019-04-25T15:31:41.126Z,96621.00
2019-04-25T15:34:10.677Z,96610.00
2019-04-25T15:36:47.415Z,96615.00
2019-04-25T15:39:33.503Z,96609.00
2019-04-25T15:42:06.385Z,96600.00
2019-04-25T15:44:53.863Z,96603.00
2019-04-25T15:47:25.290Z,96607.00
2019-04-25T15:49:56.275Z,96592.00
2019-04-25T15:52:26.690Z,96595.00
2019-04-25T15:55:06.442Z,96596.00
2019-04-25T15:57:28.079Z,96593.00
2019-04-25T15:59:57.711Z,96597.00
2019-04-25T16:02:27.605Z,96595.00
2019-04-25T16:04:59.592Z,96593.00
2019-04-25T16:07:29.099Z,96602.00
2019-04-25T16:09:58.396Z,96586.00
2019-04-25T16:12:28.699Z,96591.00
2019-04-25T16:14:58.120Z,96586.00
2019-04-25T16:17:30.701Z,96583.00
2019-04-25T16:20:00.027Z,96585.00
2019-04-25T16:22:30.266Z,96593.00
2019-04-25T16:24:59.906Z,96589.00
2019-04-25T16:27:30.342Z,96586.00
2019-04-25T16:30:03.408Z,96587.00
2019-04-25T16:32:32.860Z,96581.00
2019-04-25T16:35:02.214Z,96593.00
2019-04-25T16:37:32.430Z,96593.00
2019-04-25T16:40:02.507Z,96591.00
2019-04-25T16:42:31.863Z,96597.00
2019-04-25T16:45:02.041Z,96596.00
2019-04-25T16:47:31.752Z,96584.00
2019-04-25T16:50:01.105Z,96588.00
2019-04-25T16:52:32.193Z,96597.00
2019-04-25T16:55:01.551Z,96594.00
2019-04-25T16:57:31.601Z,96597.00
2019-04-25T17:00:00.951Z,96596.00
2019-04-25T17:02:35.583Z,96598.00
2019-04-25T17:05:04.626Z,96606.00
2019-04-25T17:07:34.103Z,96597.00
2019-04-25T17:10:04.627Z,96601.00
2019-04-25T17:12:34.368Z,96604.00
2019-04-25T17:15:06.405Z,96603.00
2019-04-25T17:17:38.037Z,96607.00
2019-04-25T17:20:25.677Z,96613.00
2019-04-25T17:22:56.239Z,96605.00
2019-04-25T17:25:26.140Z,96620.00
2019-04-25T17:27:55.655Z,96624.00
2019-04-25T17:30:26.755Z,96641.00
2019-04-25T17:33:14.487Z,96638.00
2019-04-25T17:35:45.490Z,96651.00
2019-04-25T17:38:19.409Z,96653.00
2019-04-25T17:40:50.897Z,96654.00
2019-04-25T17:43:20.322Z,96639.00
2019-04-25T17:45:49.704Z,96647.00
2019-04-25T17:48:19.524Z,96644.00
2019-04-25T17:50:50.544Z,96650.00
2019-04-25T17:53:19.922Z,96647.00
2019-04-25T17:55:51.462Z,96655.00
2019-04-25T17:58:20.845Z,96676.00
2019-04-25T18:00:51.718Z,96674.00
2019-04-25T18:03:21.418Z,96675.00
2019-04-25T18:05:50.842Z,96677.00
2019-04-25T18:08:20.314Z,96677.00
2019-04-25T18:10:49.787Z,96679.00
2019-04-25T18:13:19.140Z,96688.00
2019-04-25T18:15:56.117Z,96696.00
2019-04-25T18:18:31.521Z,96690.00
2019-04-25T18:21:00.896Z,96697.00
2019-04-25T18:23:35.257Z,96713.00
2019-04-25T18:26:09.326Z,96730.00
2019-04-25T18:28:41.522Z,96742.00
2019-04-25T18:31:11.178Z,96731.00
2019-04-25T18:33:41.840Z,96742.00
2019-04-25T18:36:22.417Z,96747.00
2019-04-25T18:38:56.496Z,96722.00
2019-04-25T18:41:33.907Z,96730.00
2019-04-25T18:44:07.945Z,96758.00
2019-04-25T18:46:38.931Z,96769.00
2019-04-25T18:49:09.055Z,96768.00
2019-04-25T18:51:38.783Z,96780.00
2019-04-25T18:54:12.532Z,96792.00
2019-04-25T18:56:46.332Z,96818.00
2019-04-25T18:59:20.358Z,96823.00
2019-04-25T19:02:03.546Z,96820.00
2019-04-25T19:04:34.546Z,96824.00
2019-04-25T19:07:03.970Z,96825.00
2019-04-25T19:09:33.785Z,96821.00
2019-04-25T19:12:03.159Z,96817.00
2019-04-25T19:14:32.872Z,96824.00
2019-04-25T19:17:02.270Z,96839.00
2019-04-25T19:19:31.639Z,96847.00
2019-04-25T19:22:00.990Z,96855.00
2019-04-25T19:24:30.358Z,96862.00
2019-04-25T19:26:59.716Z,96875.00
2019-04-25T19:29:29.062Z,96864.00
2019-04-25T19:31:59.155Z,96878.00
2019-04-25T19:34:28.518Z,96867.00
2019-04-25T19:36:57.889Z,96871.00
2019-04-25T19:39:28.909Z,96881.00
2019-04-25T19:42:14.643Z,96881.00
2019-04-25T19:44:45.004Z,96881.00
2019-04-25T19:47:14.464Z,96889.00
2019-04-25T19:49:44.933Z,96877.00
2019-04-25T19:52:15.186Z,96886.00
2019-04-25T19:54:45.248Z,96896.00
2019-04-25T19:57:14.597Z,96899.00
2019-04-25T19:59:44.669Z,96885.00
2019-04-25T20:02:25.906Z,96905.00
2019-04-25T20:04:59.537Z,96895.00
2019-04-25T20:07:36.561Z,96903.00
2019-04-25T20:10:12.351Z,96901.00
2019-04-25T20:12:51.618Z,96902.00
2019-04-25T20:15:20.062Z,96896.00
2019-04-25T20:17:49.808Z,96906.00
2019-04-25T20:20:19.412Z,96896.00
2019-04-25T20:22:48.784Z,96890.00
2019-04-25T20:25:18.321Z,96902.00
2019-04-25T20:27:48.536Z,96895.00
2019-04-25T20:30:18.302Z,96901.00
2019-04-25T20:32:47.966Z,96884.00
2019-04-25T20:35:17.720Z,96891.00
2019-04-25T20:37:47.462Z,96899.00
2019-04-25T20:40:17.768Z,96883.00
2019-04-25T20:42:48.061Z,96891.00
2019-04-25T20:45:18.023Z,96896.00
2019-04-25T20:47:48.064Z,96894.00
2019-04-25T20:50:17.442Z,96907.00
2019-04-25T20:52:47.413Z,96901.00
2019-04-25T20:55:17.206Z,96906.00
2019-04-25T20:57:47.079Z,96906.00
2019-04-25T21:00:39.961Z,96909.00
2019-04-25T21:03:09.847Z,96919.00
2019-04-25T21:05:39.266Z,96916.00
2019-04-25T21:08:09.038Z,96915.00
2019-04-25T21:10:38.461Z,96907.00
2019-04-25T21:13:09.454Z,96905.00
2019-04-25T21:15:56.227Z,96900.00
2019-04-25T21:18:30.593Z,96891.00
2019-04-25T21:20:59.942Z,96884.00
2019-04-25T21:23:29.360Z,96888.00
2019-04-25T21:25:59.073Z,96898.00
2019-04-25T21:28:28.567Z,96910.00
2019-04-25T21:30:58.740Z,96900.00
2019-04-25T21:33:28.275Z,96898.00
2019-04-25T21:35:57.906Z,96919.00
2019-04-25T21:38:27.565Z,96912.00
2019-04-25T21:40:59.929Z,96909.00
2019-04-25T21:43:31.220Z,96901.00
2019-04-25T21:46:01.056Z,96923.00
2019-04-25T21:48:30.609Z,96907.00
2019-04-25T21:51:01.789Z,96923.00
2019-04-25T21:53:31.188Z,96923.00
2019-04-25T21:56:01.832Z,96903.00
2019-04-25T21:58:31.264Z,96909.00
2019-04-25T22:01:02.817Z,96917.00
2019-04-25T22:03:32.186Z,96913.00
2019-04-25T22:06:02.870Z,96915.00
2019-04-25T22:08:32.985Z,96917.00
2019-04-25T22:11:03.169Z,96941.00
2019-04-25T22:13:32.737Z,96940.00
2019-04-25T22:16:02.455Z,96935.00
2019-04-25T22:18:32.086Z,96948.00
2019-04-25T22:21:02.362Z,96943.00
2019-04-25T22:23:32.639Z,96936.00
2019-04-25T22:26:02.960Z,96928.00
2019-04-25T22:28:32.621Z,96922.00
2019-04-25T22:31:06.227Z,96929.00
2019-04-25T22:33:57.166Z,96924.00
2019-04-25T22:36:28.098Z,96936.00
2019-04-25T22:39:09.972Z,96934.00
2019-04-25T22:41:46.499Z,96936.00
2019-04-25T22:44:17.121Z,96928.00
2019-04-25T22:46:46.720Z,96938.00
2019-04-25T22:49:16.091Z,96929.00
2019-04-25T22:51:45.454Z,96927.00
2019-04-25T22:54:15.087Z,96920.00
2019-04-25T22:56:44.503Z,96932.00
2019-04-25T22:59:14.107Z,96941.00
2019-04-25T23:01:48.045Z,96947.00
2019-04-25T23:04:35.068Z,96939.00
2019-04-25T23:07:04.507Z,96936.00
2019-04-25T23:09:35.511Z,96935.00
2019-04-25T23:12:06.680Z,96942.00
2019-04-25T23:14:36.243Z,96932.00
2019-04-25T23:17:05.599Z,96938.00
2019-04-25T23:19:34.968Z,96944.00
2019-04-25T23:22:05.635Z,96953.00
2019-04-25T23:24:36.687Z,96935.00
2019-04-25T23:27:12.157Z,96923.00
2019-04-25T23:29:41.565Z,96926.00
2019-04-25T23:32:12.392Z,96912.00
2019-04-25T23:34:41.856Z,96897.00
2019-04-25T23:37:11.258Z,96904.00
2019-04-25T23:39:40.775Z,96900.00
2019-04-25T23:42:10.177Z,96901.00
2019-04-25T23:44:40.116Z,96892.00
2019-04-25T23:47:10.118Z,96894.00
2019-04-25T23:49:39.914Z,96889.00
2019-04-25T23:52:09.445Z,96871.00
2019-04-25T23:54:38.799Z,96875.00
2019-04-25T23:57:09.380Z,96878.00
2019-04-25T23:59:38.862Z,96889.00
